Time;durP1;ratioP1;P1;durP2;ratioP2;P2;SDS_P1;SDS_P2;PMS_P1;PMS_P2;Temp;Humidity;BMP_temperature;BMP_pressure;BME280_temperature;BME280_humidity;BME280_pressure;Samples;Min_cycle;Max_cycle;Signal;HPM_P1;HPM_P2
2022/10/23 00:01:50;;;;;;;21.83;10.43;;;;;;;-143.48;90.01;78769.75;5012764;28;20017;-72
2022/10/23 00:04:18;;;;;;;24.65;9.70;;;;;;;-143.48;89.57;78771.75;5012863;28;20022;-71
2022/10/23 00:06:44;;;;;;;23.38;10.18;;;;;;;-143.48;90.27;78769.75;5012739;28;20473;-71
2022/10/23 00:09:12;;;;;;;21.67;10.02;;;;;;;-143.48;89.89;78769.75;5012679;28;20109;-71
2022/10/23 00:11:37;;;;;;;22.92;10.07;;;;;;;-143.48;90.61;78777.69;5013116;28;20461;-70
2022/10/23 00:14:06;;;;;;;18.55;9.63;;;;;;;-143.48;90.59;78781.66;5013272;28;20057;-71
2022/10/23 00:16:31;;;;;;;18.40;9.65;;;;;;;-143.48;90.87;78797.53;5012373;28;20477;-71
2022/10/23 00:18:57;;;;;;;21.45;9.88;;;;;;;-143.48;90.89;78789.59;5015249;28;20056;-71
2022/10/23 00:21:24;;;;;;;21.75;9.93;;;;;;;-143.48;91.33;78799.50;5016837;28;20084;-71
2022/10/23 00:23:49;;;;;;;22.67;9.73;;;;;;;-143.48;91.29;78797.53;5014581;28;20053;-71
2022/10/23 00:26:15;;;;;;;17.25;9.70;;;;;;;-143.48;90.95;78807.44;5016011;28;20018;-71
2022/10/23 00:28:42;;;;;;;19.38;9.48;;;;;;;-143.48;91.19;78799.50;5016429;28;20030;-70
2022/10/23 00:31:08;;;;;;;18.77;9.23;;;;;;;-143.48;91.36;78805.47;5016442;28;20040;-70
2022/10/23 00:33:33;;;;;;;24.80;10.00;;;;;;;-143.48;91.68;78783.66;5015923;28;20022;-70
2022/10/23 00:35:59;;;;;;;24.38;10.23;;;;;;;-143.48;91.81;78783.66;4998989;28;20372;-70
2022/10/23 00:38:24;;;;;;;16.85;9.48;;;;;;;-143.48;91.66;78773.72;5016378;28;20021;-71
2022/10/23 00:40:50;;;;;;;23.90;9.75;;;;;;;-143.48;91.48;78771.75;5016395;28;20088;-71
2022/10/23 00:43:18;;;;;;;19.85;9.00;;;;;;;-143.48;91.36;78773.72;4998301;28;20129;-72
2022/10/23 00:45:43;;;;;;;15.52;9.02;;;;;;;-143.48;91.35;78785.63;5015581;28;20432;-71
2022/10/23 00:48:08;;;;;;;15.80;9.48;;;;;;;-143.48;91.33;78777.69;5014382;28;20061;-72
2022/10/23 00:50:34;;;;;;;20.90;9.07;;;;;;;-143.48;91.46;78769.75;5016180;28;20490;-71
2022/10/23 00:53:03;;;;;;;16.55;8.90;;;;;;;-143.48;91.31;78777.69;5015942;28;20018;-71
2022/10/23 00:55:30;;;;;;;21.83;8.80;;;;;;;-143.48;91.34;78777.69;5015821;28;20030;-71
2022/10/23 00:57:56;;;;;;;17.48;9.18;;;;;;;-143.48;91.59;78777.69;5014947;28;20470;-72
2022/10/23 01:00:30;;;;;;;20.83;10.18;;;;;;;-143.48;91.47;78781.66;5015895;28;20022;-72
2022/10/23 01:02:56;;;;;;;21.05;9.23;;;;;;;-143.48;91.27;78791.59;5015912;28;20026;-72
2022/10/23 01:05:29;;;;;;;25.55;9.27;;;;;;;-143.48;91.58;78783.66;5016036;28;20034;-71
2022/10/23 01:07:54;;;;;;;19.52;9.40;;;;;;;-143.48;91.45;78773.72;5015740;28;20026;-71
2022/10/23 01:10:29;;;;;;;19.80;9.38;;;;;;;-143.48;91.24;78785.63;4997808;28;20045;-71
2022/10/23 01:13:03;;;;;;;22.60;9.65;;;;;;;-143.48;90.93;78793.56;5015533;28;20034;-72
2022/10/23 01:15:55;;;;;;;15.95;9.18;;;;;;;-143.48;91.27;78783.66;5015597;28;20037;-71
2022/10/23 01:18:30;;;;;;;24.58;9.88;;;;;;;-143.48;91.38;78777.69;5005350;28;20508;-73
2022/10/23 01:21:04;;;;;;;17.05;9.75;;;;;;;-143.48;91.52;78779.69;5015906;28;20033;-72
2022/10/23 01:23:51;;;;;;;17.20;9.55;;;;;;;-143.48;91.55;78773.72;5015489;28;20033;-72
2022/10/23 01:26:48;;;;;;;16.08;9.77;;;;;;;-143.48;91.41;78777.69;4997764;28;20065;-71
2022/10/23 01:29:39;;;;;;;22.48;10.20;;;;;;;-143.48;91.51;78789.59;5014413;28;20026;-71
2022/10/23 01:32:13;;;;;;;18.77;10.35;;;;;;;-143.48;91.62;78779.69;5015330;28;20030;-70
2022/10/23 01:34:51;;;;;;;20.98;9.95;;;;;;;-143.48;91.50;78783.66;5014262;28;20022;-72
2022/10/23 01:37:29;;;;;;;22.70;10.48;;;;;;;-143.48;91.45;78785.63;5015497;28;20021;-71
2022/10/23 01:40:01;;;;;;;17.23;10.05;;;;;;;-143.48;91.23;78795.53;5015129;28;20040;-71
2022/10/23 01:42:33;;;;;;;24.58;10.63;;;;;;;-143.48;92.11;78795.53;5015311;28;20525;-71
2022/10/23 01:45:14;;;;;;;20.98;9.82;;;;;;;-143.48;91.79;78793.56;5015131;28;20033;-71
2022/10/23 01:47:41;;;;;;;19.77;9.65;;;;;;;-143.48;92.19;78795.53;5015202;28;20026;-71
2022/10/23 01:50:09;;;;;;;14.32;9.80;;;;;;;-143.48;92.37;78783.66;5014539;28;20060;-72
2022/10/23 01:52:35;;;;;;;20.58;10.43;;;;;;;-143.48;91.83;78791.59;5013816;28;20493;-71
2022/10/23 01:55:01;;;;;;;21.45;10.00;;;;;;;-143.48;92.29;78781.66;5013742;28;20026;-71
2022/10/23 01:57:29;;;;;;;26.80;10.48;;;;;;;-143.48;92.26;78779.69;4997398;28;20033;-71
2022/10/23 02:00:02;;;;;;;17.88;9.98;;;;;;;-143.48;92.08;78775.72;5014932;28;20033;-71
2022/10/23 02:02:29;;;;;;;15.25;9.50;;;;;;;-143.48;92.34;78773.72;5014730;28;20099;-71
2022/10/23 02:05:21;;;;;;;17.73;10.07;;;;;;;-143.48;92.37;78761.84;5014714;28;20022;-71
2022/10/23 02:07:46;;;;;;;21.33;10.07;;;;;;;-143.48;91.75;78761.84;5015002;28;20030;-71
2022/10/23 02:10:13;;;;;;;18.30;9.82;;;;;;;-143.48;92.00;78767.78;5014653;28;20033;-71
2022/10/23 02:12:59;;;;;;;17.55;10.07;;;;;;;-143.48;92.59;78745.97;5014606;28;20105;-71
2022/10/23 02:15:31;;;;;;;15.23;9.10;;;;;;;-143.48;91.78;78767.78;5014473;28;20536;-71
2022/10/23 02:18:03;;;;;;;17.45;9.57;;;;;;;-143.48;92.32;78763.81;5013601;28;20024;-71
2022/10/23 02:20:40;;;;;;;19.95;9.60;;;;;;;-143.48;92.24;78759.84;5014379;28;20025;-71
2022/10/23 02:23:24;;;;;;;18.80;10.05;;;;;;;-143.48;92.22;78767.78;5014033;28;20084;-71
2022/10/23 02:25:54;;;;;;;;;;;;;;;-143.48;91.96;78777.69;5014834;28;20508;-71
2022/10/23 02:28:24;;;;;;;18.27;9.40;;;;;;;-143.48;92.54;78765.78;5014411;28;19913;-72
2022/10/23 02:30:49;;;;;;;19.33;10.20;;;;;;;-143.48;93.12;78749.94;5014516;28;20022;-71
2022/10/23 02:33:16;;;;;;;14.48;9.32;;;;;;;-143.48;92.46;78751.91;5014392;28;20041;-71
2022/10/23 02:35:42;;;;;;;23.20;9.75;;;;;;;-143.48;92.34;78757.88;5014165;28;20128;-71
2022/10/23 02:38:46;;;;;;;22.10;9.88;;;;;;;-143.48;92.59;78761.84;5012883;28;20037;-71
2022/10/23 02:41:36;;;;;;;22.52;9.65;;;;;;;-143.48;92.51;78755.88;4992149;28;20034;-71
2022/10/23 02:44:27;;;;;;;24.17;9.75;;;;;;;-143.48;92.45;78753.91;4992520;28;20030;-70
2022/10/23 02:47:13;;;;;;;17.98;8.98;;;;;;;-143.48;92.61;78745.97;5010073;28;20033;-71
2022/10/23 02:49:50;;;;;;;17.98;9.63;;;;;;;-143.48;92.45;78763.81;5013951;28;20022;-69
2022/10/23 02:52:24;;;;;;;16.90;8.98;;;;;;;-143.48;92.37;78761.84;5013695;28;20065;-70
2022/10/23 02:55:16;;;;;;;25.42;9.65;;;;;;;-143.48;93.20;78740.00;5013389;28;20385;-70
2022/10/23 02:57:46;;;;;;;18.05;9.20;;;;;;;-143.48;92.96;78751.91;5013435;28;20114;-70
2022/10/23 03:00:17;;;;;;;16.35;9.75;;;;;;;-143.48;92.78;78753.91;5013312;28;20030;-70
2022/10/23 03:03:01;;;;;;;19.05;9.73;;;;;;;-143.48;92.89;78743.97;5013691;28;20080;-71
2022/10/23 03:05:33;;;;;;;19.92;8.88;;;;;;;-143.48;92.70;78751.91;5014033;28;20445;-71
2022/10/23 03:08:02;;;;;;;19.83;9.63;;;;;;;-143.48;92.23;78751.91;5013704;28;20113;-70
2022/10/23 03:10:28;;;;;;;16.70;9.18;;;;;;;-143.48;92.62;78745.97;5013920;28;20030;-70
2022/10/23 03:12:53;;;;;;;14.77;9.32;;;;;;;-143.48;92.91;78734.06;5013710;28;20079;-70
2022/10/23 03:15:18;;;;;;;20.85;9.88;;;;;;;-143.48;92.62;78734.06;5013619;28;20113;-71
2022/10/23 03:17:44;;;;;;;15.55;8.82;;;;;;;-143.48;92.48;78743.97;5013239;28;20101;-71
2022/10/23 03:20:10;;;;;;;17.17;9.23;;;;;;;-143.48;92.72;78736.03;5013213;28;20084;-71
2022/10/23 03:22:35;;;;;;;16.80;8.93;;;;;;;-143.48;92.42;78734.06;5013378;28;20021;-71
2022/10/23 03:25:00;;;;;;;27.25;9.45;;;;;;;-143.48;92.77;78742.00;5013184;28;20053;-71
2022/10/23 03:27:25;;;;;;;22.48;8.57;;;;;;;-143.48;92.78;78742.00;4995542;28;20072;-71
2022/10/23 03:29:51;;;;;;;14.88;8.68;;;;;;;-143.48;92.34;78751.91;5013419;28;20025;-71
2022/10/23 03:32:16;;;;;;;17.38;8.90;;;;;;;-143.48;92.75;78747.94;5013252;28;20018;-71
2022/10/23 03:34:42;;;;;;;16.52;8.98;;;;;;;-143.48;92.49;78747.94;5013119;28;20030;-70
2022/10/23 03:37:07;;;;;;;13.15;9.13;;;;;;;-143.48;93.43;78734.06;5013136;28;20052;-70
2022/10/23 03:39:32;;;;;;;20.33;9.05;;;;;;;-143.48;93.14;78734.06;5013144;28;20049;-70
2022/10/23 03:41:58;;;;;;;18.55;9.30;;;;;;;-143.48;93.47;78726.13;5013201;28;20021;-70
2022/10/23 03:44:23;;;;;;;14.23;9.15;;;;;;;-143.48;93.18;78726.13;5013040;28;20022;-70
2022/10/23 03:46:48;;;;;;;18.08;9.02;;;;;;;-143.48;93.66;78728.13;5012883;28;20022;-70
2022/10/23 03:49:13;;;;;;;17.38;9.50;;;;;;;-143.48;93.67;78708.28;5013053;28;20116;-71
2022/10/23 03:51:40;;;;;;;19.15;9.13;;;;;;;-143.48;93.62;78702.31;5012635;28;20501;-71
2022/10/23 03:54:08;;;;;;;15.05;9.05;;;;;;;-143.48;93.09;78700.34;5016288;28;20049;-70
2022/10/23 03:56:34;;;;;;;15.60;8.73;;;;;;;-143.48;92.91;78706.28;4982951;28;20216;-71
2022/10/23 03:59:00;;;;;;;18.02;8.50;;;;;;;-143.48;93.35;78692.41;4999073;28;20018;-71
2022/10/23 04:01:25;;;;;;;16.30;8.90;;;;;;;-143.48;93.27;78684.47;5016583;28;20021;-71
2022/10/23 04:03:51;;;;;;;14.60;8.35;;;;;;;-143.48;93.22;78674.56;5016456;28;20045;-71
2022/10/23 04:06:16;;;;;;;19.60;8.90;;;;;;;-143.48;93.18;78674.56;5016470;28;20036;-71
2022/10/23 04:08:43;;;;;;;21.65;9.07;;;;;;;-143.48;93.39;78672.56;5016548;28;20117;-71
2022/10/23 04:11:08;;;;;;;13.02;8.73;;;;;;;-143.48;93.46;78670.59;5016500;28;20022;-71
2022/10/23 04:13:33;;;;;;;21.25;8.82;;;;;;;-143.48;93.71;78660.69;5016379;28;20076;-71
2022/10/23 04:15:59;;;;;;;18.15;8.57;;;;;;;-143.48;93.28;78650.75;5016409;28;20105;-71
2022/10/23 04:18:24;;;;;;;18.40;8.88;;;;;;;-143.48;93.33;78672.56;5015007;28;20037;-72
2022/10/23 04:20:50;;;;;;;18.45;8.27;;;;;;;-143.48;93.58;78662.66;5016246;28;20097;-71
2022/10/23 04:23:15;;;;;;;18.30;8.93;;;;;;;-143.48;93.21;78662.66;5016227;28;20026;-71
2022/10/23 04:25:41;;;;;;;20.02;8.80;;;;;;;-143.48;93.06;78648.78;5014826;28;20025;-71
2022/10/23 04:28:06;;;;;;;20.15;9.73;;;;;;;-143.48;92.81;78646.78;4998465;28;20465;-71
2022/10/23 04:30:31;;;;;;;15.43;9.15;;;;;;;-143.48;92.80;78648.78;5016007;28;20029;-71
2022/10/23 04:32:57;;;;;;;15.95;9.02;;;;;;;-143.48;93.14;78644.81;5016006;28;20378;-72
2022/10/23 04:35:22;;;;;;;22.75;9.05;;;;;;;-143.48;92.48;78660.69;4998302;28;20052;-71
2022/10/23 04:37:47;;;;;;;17.45;9.38;;;;;;;-143.48;93.61;78658.69;5016006;28;20026;-71
2022/10/23 04:40:13;;;;;;;17.88;8.85;;;;;;;-143.48;93.52;78648.78;5015935;28;20022;-71
2022/10/23 04:42:38;;;;;;;17.27;8.95;;;;;;;-143.48;93.81;78666.63;5015881;28;20018;-71
2022/10/23 04:45:04;;;;;;;24.38;9.25;;;;;;;-143.48;93.78;78652.75;5015724;28;20030;-71
2022/10/23 04:47:29;;;;;;;16.13;9.80;;;;;;;-143.48;93.80;78654.72;4997933;28;20034;-71
2022/10/23 04:49:55;;;;;;;16.35;9.00;;;;;;;-143.48;94.18;78656.72;5015517;28;20128;-71
2022/10/23 04:52:20;;;;;;;19.25;9.48;;;;;;;-143.48;94.45;78648.78;5015667;28;20169;-71
2022/10/23 04:54:45;;;;;;;15.23;8.55;;;;;;;-143.48;93.75;78642.81;5015650;28;20116;-71
2022/10/23 04:57:11;;;;;;;18.67;9.00;;;;;;;-143.48;94.43;78654.72;5015624;28;20066;-71
2022/10/23 04:59:36;;;;;;;16.83;9.23;;;;;;;-143.48;95.09;78650.75;4997958;28;20084;-71
2022/10/23 05:02:01;;;;;;;18.75;8.75;;;;;;;-143.48;94.74;78642.81;5015471;28;20054;-71
2022/10/23 05:04:27;;;;;;;16.48;8.27;;;;;;;-143.48;94.51;78644.81;5015179;28;20056;-71
2022/10/23 05:06:52;;;;;;;19.00;9.30;;;;;;;-143.48;94.59;78634.91;5015340;28;20026;-71
2022/10/23 05:09:17;;;;;;;14.90;8.93;;;;;;;-143.48;94.68;78634.91;5014164;28;20025;-71
2022/10/23 05:11:42;;;;;;;18.65;8.20;;;;;;;-143.48;94.23;78638.84;5015453;28;20026;-71
2022/10/23 05:14:08;;;;;;;16.98;8.80;;;;;;;-143.48;94.20;78630.94;5014394;28;20060;-71
2022/10/23 05:16:38;;;;;;;15.68;8.10;;;;;;;-143.48;94.45;78626.97;5015238;28;20045;-71
2022/10/23 05:19:08;;;;;;;14.98;8.63;;;;;;;-143.48;94.28;78623.00;5015426;28;20033;-71
2022/10/23 05:21:34;;;;;;;15.88;8.63;;;;;;;-143.48;94.41;78613.06;4997449;28;20045;-71
2022/10/23 05:24:00;;;;;;;16.15;8.13;;;;;;;-143.48;94.08;78603.16;5014962;28;20029;-71
2022/10/23 05:26:26;;;;;;;14.25;8.18;;;;;;;-143.48;93.88;78611.09;5015035;28;20033;-70
2022/10/23 05:28:52;;;;;;;14.30;7.75;;;;;;;-143.48;94.23;78597.22;5014887;28;20037;-70
2022/10/23 05:31:19;;;;;;;19.40;8.02;;;;;;;-143.48;93.82;78597.22;5014797;28;20026;-70
2022/10/23 05:33:45;;;;;;;13.38;7.90;;;;;;;-143.48;93.93;78589.28;4997349;28;20029;-70
2022/10/23 05:36:12;;;;;;;15.15;7.78;;;;;;;-143.48;93.49;78585.31;4997325;28;20389;-70
2022/10/23 05:38:38;;;;;;;12.93;7.30;;;;;;;-143.48;93.58;78575.41;5014725;28;20124;-70
2022/10/23 05:41:03;;;;;;;25.98;7.45;;;;;;;-143.48;93.12;78569.44;5014689;28;20053;-70
2022/10/23 05:43:30;;;;;;;18.42;7.38;;;;;;;-143.48;93.78;78569.44;5014649;28;20026;-70
2022/10/23 05:45:56;;;;;;;13.57;7.40;;;;;;;-143.48;93.70;78555.56;5014710;28;20030;-71
2022/10/23 05:48:21;;;;;;;15.60;6.88;;;;;;;-143.48;93.43;78535.72;5013519;28;20024;-71
2022/10/23 05:50:46;;;;;;;18.88;7.85;;;;;;;-143.48;93.14;78549.59;5014353;28;20045;-71
2022/10/23 05:53:12;;;;;;;17.77;7.03;;;;;;;-143.48;93.22;78555.56;4996716;28;20028;-70
2022/10/23 05:55:37;;;;;;;14.95;6.70;;;;;;;-143.48;93.25;78533.75;5014525;28;20388;-70
2022/10/23 05:58:03;;;;;;;18.65;6.55;;;;;;;-143.48;92.65;78521.84;5014430;28;20509;-71
2022/10/23 06:00:29;;;;;;;12.82;6.75;;;;;;;-143.48;92.86;78519.88;5014322;28;20026;-71
2022/10/23 06:02:55;;;;;;;14.00;6.40;;;;;;;-143.48;92.93;78511.94;5014226;28;20080;-70
2022/10/23 06:05:20;;;;;;;12.98;6.43;;;;;;;-143.48;93.12;78500.03;4996703;28;20068;-70
2022/10/23 06:07:45;;;;;;;17.27;6.25;;;;;;;-143.48;93.07;78492.09;5014234;28;20033;-70
2022/10/23 06:10:11;;;;;;;14.85;5.93;;;;;;;-143.48;93.64;78494.06;4996606;28;20493;-71
2022/10/23 06:12:36;;;;;;;12.57;5.97;;;;;;;-143.48;93.04;78478.22;4996560;28;20037;-70
2022/10/23 06:15:03;;;;;;;18.13;5.95;;;;;;;-143.48;92.85;78470.28;5013538;28;20033;-71
2022/10/23 06:17:28;;;;;;;19.17;5.68;;;;;;;-143.48;93.05;78456.41;5013709;28;20637;-70
2022/10/23 06:19:59;;;;;;;10.45;5.63;;;;;;;-143.48;92.62;78460.38;4996592;28;20113;-70
2022/10/23 06:22:26;;;;;;;14.77;5.70;;;;;;;-143.48;92.63;78448.47;5014673;28;20109;-70
2022/10/23 06:24:51;;;;;;;15.45;5.38;;;;;;;-143.48;92.55;78440.53;4996277;28;20028;-70
2022/10/23 06:27:16;;;;;;;9.60;5.22;;;;;;;-143.48;92.30;78430.63;5013780;28;20022;-70
2022/10/23 06:29:41;;;;;;;17.85;5.22;;;;;;;-143.48;91.84;78422.69;4996337;28;20403;-70
2022/10/23 06:32:07;;;;;;;9.32;5.03;;;;;;;-143.48;92.03;78424.66;5013793;28;20500;-71
2022/10/23 06:34:32;;;;;;;10.98;5.20;;;;;;;-143.48;92.04;78422.69;5013833;28;20069;-71
2022/10/23 06:36:57;;;;;;;12.38;5.18;;;;;;;-143.48;92.02;78418.72;5013636;28;20022;-71
2022/10/23 06:39:23;;;;;;;14.02;5.57;;;;;;;-143.48;91.85;78416.72;5013826;28;20037;-71
2022/10/23 06:41:48;;;;;;;12.18;4.97;;;;;;;-143.48;92.37;78412.75;5013768;28;20105;-70
2022/10/23 06:44:13;;;;;;;11.90;5.45;;;;;;;-143.48;91.95;78408.81;5013683;28;20391;-70
2022/10/23 06:46:39;;;;;;;11.75;5.15;;;;;;;-143.48;91.76;78406.81;5013630;28;20095;-71
2022/10/23 06:49:04;;;;;;;10.27;5.50;;;;;;;-143.48;91.49;78400.88;5013456;28;20030;-70
2022/10/23 06:51:29;;;;;;;14.57;5.30;;;;;;;-143.48;91.55;78392.94;5013360;28;20465;-70
2022/10/23 06:53:56;;;;;;;17.60;5.40;;;;;;;-143.48;91.48;78394.91;5013404;28;20032;-70
2022/10/23 06:56:24;;;;;;;14.57;5.75;;;;;;;-143.48;91.42;78388.97;5013585;28;20087;-71
2022/10/23 06:58:49;;;;;;;15.43;5.90;;;;;;;-143.48;91.33;78392.94;4995759;28;20021;-70
2022/10/23 07:01:15;;;;;;;14.40;5.70;;;;;;;-143.48;91.52;78390.94;5013393;28;20029;-70
2022/10/23 07:03:41;;;;;;;16.52;6.43;;;;;;;-143.48;91.20;78388.97;5013636;28;20076;-70
2022/10/23 07:06:08;;;;;;;13.80;6.13;;;;;;;-143.48;91.67;78390.94;5013333;28;20034;-70
2022/10/23 07:08:34;;;;;;;14.98;5.90;;;;;;;-143.48;91.60;78392.94;5013307;28;20026;-70
2022/10/23 07:11:04;;;;;;;17.05;6.03;;;;;;;-143.48;91.51;78390.94;5013242;28;20117;-70
2022/10/23 07:13:29;;;;;;;19.73;5.93;;;;;;;-143.48;91.70;78390.94;5013341;28;20026;-70
2022/10/23 07:15:54;;;;;;;16.42;6.38;;;;;;;-143.48;90.89;78381.03;5013374;28;20095;-70
2022/10/23 07:18:19;;;;;;;11.20;5.82;;;;;;;-143.48;90.56;78365.16;5012142;28;20097;-71
2022/10/23 07:20:48;;;;;;;13.05;5.63;;;;;;;-143.48;90.69;78377.06;5013194;28;20386;-71
2022/10/23 07:23:15;;;;;;;14.98;5.80;;;;;;;-143.48;91.03;78377.06;5013325;28;20025;-71
2022/10/23 07:25:40;;;;;;;19.85;6.18;;;;;;;-143.48;90.61;78369.13;5013231;28;20025;-71
2022/10/23 07:28:06;;;;;;;18.10;6.65;;;;;;;-143.48;90.81;78361.19;5016533;28;20076;-71
2022/10/23 07:30:31;;;;;;;15.10;5.43;;;;;;;-143.48;90.19;78359.22;4999580;28;20026;-71
2022/10/23 07:32:56;;;;;;;13.85;6.32;;;;;;;-143.48;90.23;78345.34;4999527;28;20040;-71
2022/10/23 07:35:22;;;;;;;14.20;5.78;;;;;;;-143.48;89.64;78343.34;5017652;28;20045;-71
2022/10/23 07:37:47;;;;;;;12.73;5.95;;;;;;;-143.48;89.71;78357.22;5017142;28;20080;-71
2022/10/23 07:40:13;;;;;;;13.55;6.32;;;;;;;-143.48;90.17;78357.22;5017109;28;20080;-70
2022/10/23 07:42:38;;;;;;;17.58;6.05;;;;;;;-143.48;90.00;78333.44;5017149;28;20025;-71
2022/10/23 07:45:06;;;;;;;15.55;6.68;;;;;;;-143.48;89.52;78325.50;5017013;28;20392;-71
2022/10/23 07:47:31;;;;;;;9.95;5.82;;;;;;;-143.48;89.50;78321.53;4999177;28;20033;-72
2022/10/23 07:49:57;;;;;;;14.05;6.20;;;;;;;-143.48;89.83;78319.56;5014780;28;20501;-72
2022/10/23 07:52:23;;;;;;;11.52;5.75;;;;;;;-143.48;89.73;78305.66;5016845;28;20033;-72
2022/10/23 07:54:51;;;;;;;14.25;6.28;;;;;;;-143.48;89.27;78307.66;5016652;28;20506;-71
2022/10/23 07:57:17;;;;;;;14.40;6.18;;;;;;;-143.48;89.14;78293.78;5014765;28;20505;-71
2022/10/23 07:59:43;;;;;;;11.02;5.60;;;;;;;-143.48;89.16;78299.72;4999036;28;20423;-71
2022/10/23 08:02:15;;;;;;;16.15;6.05;;;;;;;-143.48;89.39;78301.72;5016576;28;20056;-71
2022/10/23 08:04:41;;;;;;;12.80;6.05;;;;;;;-143.48;88.92;78289.81;5015317;28;20483;-71
2022/10/23 08:07:06;;;;;;;10.43;5.90;;;;;;;-143.48;89.16;78281.88;5016542;28;20095;-71
2022/10/23 08:09:33;;;;;;;14.18;6.25;;;;;;;-143.48;88.74;78269.97;5016480;28;20389;-71
2022/10/23 08:11:59;;;;;;;12.75;6.18;;;;;;;-143.48;88.50;78279.88;5016887;28;20026;-71
2022/10/23 08:14:24;;;;;;;11.30;5.60;;;;;;;-143.48;88.77;78273.94;5015356;28;20037;-71
2022/10/23 08:16:49;;;;;;;14.13;6.25;;;;;;;-143.48;88.33;78273.94;5016418;28;20100;-70
2022/10/23 08:19:15;;;;;;;11.15;6.00;;;;;;;-143.48;87.83;78260.06;5016297;28;20033;-70
2022/10/23 08:21:40;;;;;;;15.10;6.38;;;;;;;-143.48;88.13;78252.13;5016206;28;20022;-71
2022/10/23 08:24:05;;;;;;;11.40;5.88;;;;;;;-143.48;87.70;78238.25;5016223;28;20026;-71
2022/10/23 08:26:31;;;;;;;10.40;5.55;;;;;;;-143.48;87.58;78240.22;5016194;28;20100;-71
2022/10/23 08:29:00;;;;;;;19.08;5.95;;;;;;;-143.48;87.68;78228.31;5014653;28;20030;-71
2022/10/23 08:31:26;;;;;;;12.73;5.28;;;;;;;-143.48;87.90;78242.22;5016156;28;20026;-71
2022/10/23 08:33:51;;;;;;;18.73;6.00;;;;;;;-143.48;88.20;78238.25;5016007;28;20390;-71
2022/10/23 08:36:22;;;;;;;15.73;5.82;;;;;;;-143.48;88.51;78234.28;5016010;28;20029;-72
2022/10/23 08:38:48;;;;;;;13.45;5.80;;;;;;;-143.48;88.46;78240.22;5014001;28;20030;-71
2022/10/23 08:41:26;;;;;;;13.07;5.78;;;;;;;-143.48;88.46;78234.28;5014658;28;20026;-71
2022/10/23 08:44:00;;;;;;;15.60;5.40;;;;;;;-143.48;87.85;78206.50;5015930;28;20389;-71
2022/10/23 08:46:30;;;;;;;20.05;5.65;;;;;;;-143.48;87.49;78194.63;4998054;28;20481;-70
2022/10/23 08:49:11;;;;;;;15.82;5.40;;;;;;;-143.48;87.13;78194.63;5015591;28;20099;-71
2022/10/23 08:51:43;;;;;;;15.75;6.35;;;;;;;-143.48;87.00;78190.66;5013967;28;20054;-72
2022/10/23 08:54:16;;;;;;;13.15;5.78;;;;;;;-143.48;87.26;78204.53;5013605;28;20025;-71
2022/10/23 08:56:48;;;;;;;10.15;5.65;;;;;;;-143.48;87.68;78188.66;5015328;28;20444;-71
2022/10/23 08:59:25;;;;;;;12.02;5.70;;;;;;;-143.48;86.92;78162.88;5015335;28;20026;-71
2022/10/23 09:02:04;;;;;;;13.25;5.63;;;;;;;-143.48;86.97;78156.94;4996660;28;20030;-71
2022/10/23 09:04:30;;;;;;;13.60;5.57;;;;;;;-143.48;86.36;78139.09;5015338;28;20026;-71
2022/10/23 09:07:17;;;;;;;13.10;5.57;;;;;;;-143.48;85.56;78131.16;5013765;28;20030;-72
2022/10/23 09:09:48;;;;;;;10.05;4.57;;;;;;;-143.48;84.94;78111.31;5015376;28;20033;-71
2022/10/23 09:12:16;;;;;;;12.32;5.18;;;;;;;-143.48;84.90;78117.28;4997753;28;20030;-71
2022/10/23 09:15:27;;;;;;;12.05;4.95;;;;;;;-143.48;84.16;78105.38;5015498;28;20068;-71
2022/10/23 09:17:57;;;;;;;13.30;5.13;;;;;;;-143.48;84.29;78091.50;5014022;28;20037;-71
2022/10/23 09:20:25;;;;;;;12.27;4.90;;;;;;;-143.48;84.05;78083.56;5015046;28;20030;-70
2022/10/23 09:22:59;;;;;;;10.27;4.85;;;;;;;-143.48;84.16;78079.59;5015151;28;20485;-70
2022/10/23 09:25:27;;;;;;;11.15;4.60;;;;;;;-143.48;83.80;78081.56;5015201;28;20030;-70
2022/10/23 09:27:55;;;;;;;8.02;4.35;;;;;;;-143.48;84.01;78081.56;5014938;28;20065;-70
2022/10/23 09:30:36;;;;;;;11.18;4.88;;;;;;;-143.48;84.58;78075.63;5015011;28;20477;-71
2022/10/23 09:33:16;;;;;;;20.65;4.95;;;;;;;-143.48;83.84;78069.69;5014899;28;20029;-72
2022/10/23 09:36:05;;;;;;;11.05;4.40;;;;;;;-143.48;83.95;78067.69;5014854;28;20108;-71
2022/10/23 09:38:35;;;;;;;10.75;4.38;;;;;;;-143.48;83.90;78075.63;5014763;28;20026;-70
2022/10/23 09:41:20;;;;;;;11.40;4.45;;;;;;;-143.48;83.80;78063.72;5014730;28;20040;-71
2022/10/23 09:43:45;;;;;;;15.77;4.28;;;;;;;-143.48;83.67;78053.81;5014530;28;20109;-71
2022/10/23 09:46:11;;;;;;;10.05;4.10;;;;;;;-143.48;83.85;78057.78;5014662;28;20044;-70
2022/10/23 09:48:38;;;;;;;11.18;4.40;;;;;;;-143.48;83.88;78063.72;5014485;28;20108;-70
2022/10/23 09:51:16;;;;;;;12.10;4.20;;;;;;;-143.48;83.61;78065.72;5013406;28;20096;-70
2022/10/23 09:53:52;;;;;;;11.90;4.20;;;;;;;-143.48;83.61;78055.81;5014499;28;20034;-71
2022/10/23 09:56:25;;;;;;;11.73;4.05;;;;;;;-143.48;83.14;78051.84;5014754;28;20084;-71
2022/10/23 09:59:01;;;;;;;10.73;3.70;;;;;;;-143.48;83.19;78035.97;5014455;28;20048;-71
2022/10/23 10:01:31;;;;;;;14.07;4.35;;;;;;;-143.48;83.22;78037.94;5014460;28;20037;-72
2022/10/23 10:03:57;;;;;;;11.85;4.22;;;;;;;-143.48;82.98;78039.94;5013042;28;20057;-71
2022/10/23 10:06:24;;;;;;;12.38;4.10;;;;;;;-143.48;82.58;78026.06;5014486;28;20065;-71
2022/10/23 10:08:53;;;;;;;9.70;4.22;;;;;;;-143.48;82.28;78004.25;5012980;28;20033;-71
2022/10/23 10:11:29;;;;;;;7.30;3.60;;;;;;;-143.48;82.07;78008.22;5014161;28;20426;-72
2022/10/23 10:14:00;;;;;;;10.60;3.95;;;;;;;-143.48;82.14;78004.25;5014270;28;20026;-71
2022/10/23 10:16:37;;;;;;;15.30;4.03;;;;;;;-143.48;81.64;77992.34;5014007;28;20429;-71
2022/10/23 10:19:11;;;;;;;13.80;4.43;;;;;;;-143.48;81.36;77982.44;5014046;28;20026;-71
2022/10/23 10:22:03;;;;;;;9.82;3.78;;;;;;;-143.48;81.49;77990.34;5014101;28;20495;-72
2022/10/23 10:24:50;;;;;;;6.68;3.50;;;;;;;-143.48;81.07;77972.50;5014274;28;20033;-72
2022/10/23 10:27:27;;;;;;;10.68;3.50;;;;;;;-143.48;80.50;77970.53;5013729;28;20466;-72
2022/10/23 10:30:14;;;;;;;8.90;3.22;;;;;;;-143.48;80.65;77968.53;5014059;28;20024;-71
2022/10/23 10:32:45;;;;;;;9.38;3.40;;;;;;;-143.48;80.76;77968.53;5013962;28;20029;-71
2022/10/23 10:35:29;;;;;;;8.40;3.55;;;;;;;-143.48;80.37;77950.69;5013874;28;20018;-71
2022/10/23 10:38:08;;;;;;;6.95;3.65;;;;;;;-143.48;80.29;77942.78;4996150;28;20393;-71
2022/10/23 10:40:39;;;;;;;7.32;3.60;;;;;;;-143.48;80.05;77936.81;5012553;28;20447;-71
2022/10/23 10:43:37;;;;;;;9.15;3.60;;;;;;;-143.48;80.10;77918.97;5013984;28;20018;-71
2022/10/23 10:46:21;;;;;;;7.40;3.30;;;;;;;-143.48;79.72;77907.06;5013788;28;20030;-71
2022/10/23 10:48:55;;;;;;;14.27;3.40;;;;;;;-143.48;79.61;77893.19;5013545;28;20026;-71
2022/10/23 10:51:41;;;;;;;12.10;3.60;;;;;;;-143.48;79.86;77899.13;5013465;28;20413;-71
2022/10/23 10:54:32;;;;;;;9.73;3.55;;;;;;;-143.48;79.01;77897.16;5013122;28;20442;-71
2022/10/23 10:57:01;;;;;;;11.32;3.67;;;;;;;-143.48;78.90;77881.28;5013485;28;20421;-71
2022/10/23 10:59:30;;;;;;;9.30;3.95;;;;;;;-143.48;79.03;77881.28;5012112;28;20045;-71
2022/10/23 11:02:04;;;;;;;13.80;4.40;;;;;;;-143.48;78.69;77871.38;5013068;28;20385;-71
2022/10/23 11:04:35;;;;;;;11.40;4.03;;;;;;;-143.48;78.45;77873.38;5013611;28;20033;-70
2022/10/23 11:07:07;;;;;;;7.10;3.67;;;;;;;-143.48;78.59;77865.44;5013450;28;20022;-70
2022/10/23 11:09:32;;;;;;;7.80;3.83;;;;;;;-143.48;78.33;77845.59;4995978;28;20444;-71
2022/10/23 11:11:58;;;;;;;8.50;3.80;;;;;;;-143.48;78.04;77839.66;5013282;28;20053;-71
2022/10/23 11:14:31;;;;;;;11.82;3.85;;;;;;;-143.48;78.04;77829.75;5013364;28;20105;-71
2022/10/23 11:17:06;;;;;;;12.05;3.70;;;;;;;-143.48;77.59;77819.81;5013509;28;20432;-70
2022/10/23 11:19:39;;;;;;;12.30;3.78;;;;;;;-143.48;77.22;77817.84;5013275;28;20521;-72
2022/10/23 11:22:26;;;;;;;9.20;3.35;;;;;;;-143.48;76.78;77790.06;5012989;28;20037;-70